createdAt,value
2023-03-08T00:02:36.943Z,93895.53
2023-03-08T00:05:41.223Z,93894.72
2023-03-08T00:08:44.453Z,93912.31
2023-03-08T00:11:47.243Z,93912.31
2023-03-08T00:14:51.454Z,93913.66
2023-03-08T00:17:54.214Z,93918.09
2023-03-08T00:21:00.857Z,93919.66
2023-03-08T00:24:03.232Z,93914.69
2023-03-08T00:27:05.854Z,93905.75
2023-03-08T00:30:14.268Z,93921.78
2023-03-08T00:33:16.705Z,93914.69
2023-03-08T00:36:20.296Z,93917.31
2023-03-08T00:39:23.097Z,93922.56
2023-03-08T00:42:25.902Z,93925.97
2023-03-08T00:45:29.720Z,93920.72
2023-03-08T00:48:32.726Z,93924.91
2023-03-08T00:51:35.229Z,93927.03
2023-03-08T00:54:38.657Z,93929.66
2023-03-08T00:57:41.267Z,93933.06
2023-03-08T01:00:46.340Z,93940.94
2023-03-08T01:03:50.140Z,93933.06
2023-03-08T01:06:52.515Z,93931.50
2023-03-08T01:09:55.734Z,93933.31
2023-03-08T01:12:58.337Z,93938.31
2023-03-08T01:16:04.075Z,93940.16
2023-03-08T01:19:09.162Z,93948.81
2023-03-08T01:22:12.175Z,93942.78
2023-03-08T01:25:14.788Z,93936.47
2023-03-08T01:28:17.534Z,93934.13
2023-03-08T01:31:23.941Z,93941.72
2023-03-08T01:34:26.457Z,93929.66
2023-03-08T01:37:28.923Z,93939.09
2023-03-08T01:40:31.513Z,93938.31
2023-03-08T01:43:36.281Z,93927.81
2023-03-08T01:46:40.271Z,93929.91
2023-03-08T01:49:43.506Z,93933.31
2023-03-08T01:52:51.841Z,93921.78
2023-03-08T01:55:54.723Z,93935.16
2023-03-08T01:58:58.741Z,93930.72
2023-03-08T02:02:03.803Z,93925.47
2023-03-08T02:05:07.563Z,93930.97
2023-03-08T02:08:10.591Z,93942.25
2023-03-08T02:11:14.899Z,93937.00
2023-03-08T02:14:17.443Z,93934.38
2023-03-08T02:17:21.583Z,93927.28
2023-03-08T02:20:29.467Z,93925.47
2023-03-08T02:23:33.486Z,93918.63
2023-03-08T02:26:39.816Z,93922.81
2023-03-08T02:29:42.381Z,93928.09
2023-03-08T02:32:45.041Z,93921.00
2023-03-08T02:35:48.095Z,93925.47
2023-03-08T02:38:52.134Z,93928.88
2023-03-08T02:41:54.587Z,93923.63
2023-03-08T02:44:57.027Z,93936.75
2023-03-08T02:47:59.614Z,93932.28
2023-03-08T02:51:02.295Z,93934.13
2023-03-08T02:54:07.647Z,93930.72
2023-03-08T02:57:10.938Z,93928.59
2023-03-08T03:00:15.877Z,93923.63
2023-03-08T03:03:18.654Z,93926.25
2023-03-08T03:06:21.706Z,93931.75
2023-03-08T03:09:26.273Z,93926.50
2023-03-08T03:12:29.078Z,93938.59
2023-03-08T03:15:31.684Z,93930.97
2023-03-08T03:18:34.291Z,93934.38
2023-03-08T03:21:37.017Z,93932.53
2023-03-08T03:24:41.050Z,93940.16
2023-03-08T03:27:43.563Z,93934.38
2023-03-08T03:30:46.164Z,93935.97
2023-03-08T03:33:50.355Z,93941.22
2023-03-08T03:36:53.021Z,93944.63
2023-03-08T03:39:57.286Z,93952.50
2023-03-08T03:42:59.788Z,93960.38
2023-03-08T03:46:04.765Z,93951.72
2023-03-08T03:49:08.502Z,93950.13
2023-03-08T03:52:10.924Z,93948.56
2023-03-08T03:55:15.082Z,93960.63
2023-03-08T03:58:18.062Z,93960.63
2023-03-08T04:01:24.492Z,93954.34
2023-03-08T04:04:27.086Z,93951.72
2023-03-08T04:07:29.569Z,93954.59
2023-03-08T04:10:33.638Z,93950.13
2023-03-08T04:13:36.850Z,93952.75
2023-03-08T04:16:40.816Z,93959.59
2023-03-08T04:19:43.266Z,93957.22
2023-03-08T04:22:46.203Z,93950.91
2023-03-08T04:25:50.235Z,93955.91
2023-03-08T04:28:53.309Z,93953.28
2023-03-08T04:32:00.036Z,93947.50
2023-03-08T04:35:02.554Z,93952.25
2023-03-08T04:38:05.474Z,93955.13
2023-03-08T04:41:12.090Z,93948.03
2023-03-08T04:44:16.073Z,93944.63
2023-03-08T04:47:18.476Z,93942.78
2023-03-08T04:50:21.074Z,93947.25
2023-03-08T04:53:24.620Z,93954.06
2023-03-08T04:56:28.513Z,93941.22
2023-03-08T04:59:31.107Z,93949.09
2023-03-08T05:02:33.843Z,93949.09
2023-03-08T05:05:36.622Z,93941.22
2023-03-08T05:08:39.116Z,93949.09
2023-03-08T05:11:43.009Z,93956.16
2023-03-08T05:14:45.710Z,93947.50
2023-03-08T05:17:48.294Z,93963.00
2023-03-08T05:20:55.673Z,93950.91
2023-03-08T05:24:00.406Z,93959.06
2023-03-08T05:27:04.476Z,93950.13
2023-03-08T05:30:07.590Z,93951.19
2023-03-08T05:33:10.153Z,93955.66
2023-03-08T05:36:14.661Z,93948.56
2023-03-08T05:39:17.192Z,93951.19
2023-03-08T05:42:21.161Z,93948.56
2023-03-08T05:45:23.665Z,93956.69
2023-03-08T05:48:26.919Z,93946.97
2023-03-08T05:51:29.469Z,93945.94
2023-03-08T05:54:32.017Z,93936.22
2023-03-08T05:57:36.467Z,93945.94
2023-03-08T06:00:40.323Z,93946.19
2023-03-08T06:03:42.914Z,93960.91
2023-03-08T06:06:45.386Z,93959.31
2023-03-08T06:09:47.863Z,93952.22
2023-03-08T06:12:51.988Z,93952.22
2023-03-08T06:15:56.726Z,93956.69
2023-03-08T06:18:59.253Z,93954.59
2023-03-08T06:22:01.889Z,93955.38
2023-03-08T06:25:07.047Z,93956.44
2023-03-08T06:28:11.086Z,93953.00
2023-03-08T06:31:16.394Z,93950.38
2023-03-08T06:34:19.352Z,93945.94
2023-03-08T06:37:22.154Z,93953.00
2023-03-08T06:40:24.767Z,93951.19
2023-03-08T06:43:29.207Z,93949.09
2023-03-08T06:46:32.155Z,93942.25
2023-03-08T06:49:35.818Z,93945.94
2023-03-08T06:52:38.669Z,93955.66
2023-03-08T06:55:42.151Z,93957.47
2023-03-08T06:58:46.549Z,93966.41
2023-03-08T07:01:49.327Z,93959.31
2023-03-08T07:04:51.751Z,93969.81
2023-03-08T07:07:55.860Z,93968.78
2023-03-08T07:10:59.532Z,93968.78
2023-03-08T07:14:03.308Z,93958.28
2023-03-08T07:17:05.903Z,93967.97
2023-03-08T07:20:10.061Z,93955.13
2023-03-08T07:23:13.137Z,93963.78
2023-03-08T07:26:15.596Z,93966.16
2023-03-08T07:29:19.692Z,93957.47
2023-03-08T07:32:23.749Z,93960.09
2023-03-08T07:35:26.396Z,93949.59
2023-03-08T07:38:29.066Z,93949.59
2023-03-08T07:41:33.082Z,93953.81
2023-03-08T07:44:37.376Z,93948.81
2023-03-08T07:47:41.120Z,93948.81
2023-03-08T07:50:43.684Z,93949.88
2023-03-08T07:53:46.285Z,93949.06
2023-03-08T07:56:48.904Z,93949.88
2023-03-08T07:59:54.188Z,93946.19
2023-03-08T08:02:57.823Z,93940.94
2023-03-08T08:06:04.093Z,93943.56
2023-03-08T08:09:07.580Z,93939.09
2023-03-08T08:12:10.925Z,93929.38
2023-03-08T08:15:16.239Z,93932.81
2023-03-08T08:18:18.988Z,93932.00
2023-03-08T08:21:21.929Z,93928.59
2023-03-08T08:24:24.511Z,93927.56
2023-03-08T08:27:28.129Z,93927.56
2023-03-08T08:30:32.206Z,93930.19
2023-03-08T08:33:35.630Z,93923.34
2023-03-08T08:36:39.226Z,93918.63
2023-03-08T08:39:41.748Z,93911.81
2023-03-08T08:42:44.681Z,93904.72
2023-03-08T08:45:54.210Z,93902.88
2023-03-08T08:48:56.972Z,93910.75
2023-03-08T08:51:59.469Z,93901.28
2023-03-08T08:55:02.397Z,93902.88
2023-03-08T08:58:06.533Z,93889.75
2023-03-08T09:01:17.986Z,93884.50
2023-03-08T09:04:20.955Z,93879.25
2023-03-08T09:07:25.938Z,93870.31
2023-03-08T09:10:30.712Z,93864.28
2023-03-08T09:13:33.783Z,93857.19
2023-03-08T09:16:38.233Z,93858.25
2023-03-08T09:19:41.042Z,93843.28
2023-03-08T09:22:44.435Z,93840.66
2023-03-08T09:25:46.962Z,93843.00
2023-03-08T09:28:49.454Z,93842.50
2023-03-08T09:31:53.547Z,93838.28
2023-03-08T09:34:56.382Z,93834.63
2023-03-08T09:38:01.060Z,93832.00
2023-03-08T09:41:16.150Z,93824.09
2023-03-08T09:44:45.868Z,93825.69
2023-03-08T09:47:56.760Z,93818.84
2023-03-08T09:51:04.613Z,93819.66
2023-03-08T09:54:13.562Z,93809.94
2023-03-08T09:57:21.901Z,93815.19
2023-03-08T10:00:31.090Z,93803.09
2023-03-08T10:03:51.218Z,93802.06
2023-03-08T10:07:07.385Z,93801.28
2023-03-08T10:10:23.672Z,93794.97
2023-03-08T10:13:33.239Z,93789.72
2023-03-08T10:16:40.831Z,93792.59
2023-03-08T10:19:49.574Z,93792.59
2023-03-08T10:23:00.062Z,93779.22
2023-03-08T10:26:03.489Z,93789.97
2023-03-08T10:29:06.097Z,93784.47
2023-03-08T10:32:14.370Z,93779.22
2023-03-08T10:35:20.034Z,93779.22
2023-03-08T10:38:24.162Z,93773.19
2023-03-08T10:41:28.401Z,93768.72
2023-03-08T10:44:39.049Z,93772.13
2023-03-08T10:47:41.910Z,93765.28
2023-03-08T10:50:46.988Z,93764.25
2023-03-08T10:53:57.360Z,93757.44
2023-03-08T10:57:02.335Z,93758.22
2023-03-08T11:00:13.627Z,93740.63
2023-03-08T11:03:18.208Z,93741.41
2023-03-08T11:06:26.114Z,93730.91
2023-03-08T11:09:31.620Z,93723.81
2023-03-08T11:12:34.175Z,93723.81
2023-03-08T11:15:41.439Z,93713.31
2023-03-08T11:18:53.133Z,93709.13
2023-03-08T11:22:05.780Z,93694.16
2023-03-08T11:25:17.635Z,93688.91
2023-03-08T11:28:31.238Z,93676.56
2023-03-08T11:31:40.920Z,93680.22
2023-03-08T11:35:05.038Z,93669.72
2023-03-08T11:38:17.103Z,93654.25
2023-03-08T11:41:26.032Z,93654.25
2023-03-08T11:44:41.152Z,93650.84
2023-03-08T11:47:56.154Z,93650.06
2023-03-08T11:51:04.553Z,93647.41
2023-03-08T11:54:18.328Z,93650.84
2023-03-08T11:57:21.608Z,93639.53
2023-03-08T12:00:30.137Z,93636.66
2023-03-08T12:03:38.516Z,93629.03
2023-03-08T12:06:43.739Z,93622.75
2023-03-08T12:09:56.110Z,93627.22
2023-03-08T12:13:05.631Z,93626.41
2023-03-08T12:16:16.456Z,93624.59
2023-03-08T12:19:27.568Z,93616.44
2023-03-08T12:22:43.341Z,93610.41
2023-03-08T12:25:52.594Z,93605.94
2023-03-08T12:28:59.350Z,93603.31
2023-03-08T12:32:04.604Z,93605.16
2023-03-08T12:35:24.753Z,93597.28
2023-03-08T12:38:34.404Z,93598.31
2023-03-08T12:41:38.454Z,93593.88
2023-03-08T12:44:42.112Z,93599.13
2023-03-08T12:47:54.969Z,93586.25
2023-03-08T12:51:00.925Z,93586.78
2023-03-08T12:54:05.392Z,93582.56
2023-03-08T12:57:22.205Z,93573.66
2023-03-08T13:00:28.947Z,93572.59
2023-03-08T13:03:40.185Z,93566.56
2023-03-08T13:07:18.170Z,93564.97
2023-03-08T13:10:23.888Z,93550.03
2023-03-08T13:13:43.648Z,93550.81
2023-03-08T13:16:46.408Z,93543.72
2023-03-08T13:19:53.031Z,93547.13
2023-03-08T13:23:03.259Z,93537.69
2023-03-08T13:26:22.646Z,93545.28
2023-03-08T13:29:32.319Z,93541.88
2023-03-08T13:32:35.231Z,93533.22
2023-03-08T13:35:37.829Z,93523.75
2023-03-08T13:38:40.743Z,93514.06
2023-03-08T13:41:45.184Z,93519.56
2023-03-08T13:44:51.363Z,93522.19
2023-03-08T13:47:55.272Z,93509.06
2023-03-08T13:50:59.837Z,93511.97
2023-03-08T13:54:02.391Z,93506.72
2023-03-08T13:57:18.978Z,93502.75
2023-03-08T14:00:26.471Z,93488.06
2023-03-08T14:03:30.801Z,93483.59
2023-03-08T14:06:36.874Z,93500.94
2023-03-08T14:09:41.632Z,93482.81
2023-03-08T14:12:45.866Z,93482.81
2023-03-08T14:15:57.356Z,93484.38
2023-03-08T14:19:01.622Z,93486.50
2023-03-08T14:22:11.398Z,93484.38
2023-03-08T14:25:29.229Z,93480.69
2023-03-08T14:28:40.470Z,93477.28
2023-03-08T14:31:56.673Z,93456.28
2023-03-08T14:35:08.383Z,93464.94
2023-03-08T14:38:15.724Z,93461.28
2023-03-08T14:41:18.660Z,93451.81
2023-03-08T14:44:24.732Z,93446.84
2023-03-08T14:47:31.085Z,93443.94
2023-03-08T14:50:35.117Z,93445.53
2023-03-08T14:53:39.791Z,93450.78
2023-03-08T14:56:42.507Z,93441.81
2023-03-08T14:59:45.303Z,93443.69
2023-03-08T15:02:51.581Z,93428.69
2023-03-08T15:05:55.629Z,93436.56
2023-03-08T15:08:59.363Z,93430.56
2023-03-08T15:12:01.748Z,93424.53
2023-03-08T15:15:10.316Z,93421.09
2023-03-08T15:18:14.418Z,93414.00
2023-03-08T15:21:22.180Z,93421.91
2023-03-08T15:24:24.698Z,93420.31
2023-03-08T15:27:28.223Z,93418.47
2023-03-08T15:30:32.251Z,93411.38
2023-03-08T15:33:37.356Z,93400.09
2023-03-08T15:36:40.099Z,93400.88
2023-03-08T15:39:42.702Z,93396.44
2023-03-08T15:42:45.839Z,93378.81
2023-03-08T15:45:48.373Z,93388.53
2023-03-08T15:48:52.145Z,93390.09
2023-03-08T15:51:54.526Z,93387.25
2023-03-08T15:54:57.436Z,93387.75
2023-03-08T15:58:00.579Z,93393.78
2023-03-08T16:01:03.120Z,93381.72
2023-03-08T16:04:06.947Z,93378.81
2023-03-08T16:07:09.393Z,93378.81
2023-03-08T16:10:14.315Z,93383.00
2023-03-08T16:13:18.589Z,93378.81
2023-03-08T16:16:23.435Z,93365.97
2023-03-08T16:19:34.318Z,93373.53
2023-03-08T16:22:37.161Z,93378.81
2023-03-08T16:25:42.339Z,93379.59
2023-03-08T16:28:46.156Z,93378.81
2023-03-08T16:31:49.125Z,93388.53
2023-03-08T16:34:57.017Z,93379.59
2023-03-08T16:37:59.502Z,93373.84
2023-03-08T16:41:12.278Z,93375.91
2023-03-08T16:44:21.273Z,93383.50
2023-03-08T16:47:25.661Z,93381.44
2023-03-08T16:50:30.152Z,93375.41
2023-03-08T16:53:32.726Z,93378.81
2023-03-08T16:56:35.359Z,93377.25
2023-03-08T16:59:37.836Z,93380.66
2023-03-08T17:02:40.600Z,93371.22
2023-03-08T17:05:46.387Z,93374.63
2023-03-08T17:08:49.030Z,93367.53
2023-03-08T17:11:51.545Z,93370.16
2023-03-08T17:14:54.201Z,93368.31
2023-03-08T17:17:57.099Z,93364.63
2023-03-08T17:21:00.894Z,93360.94
2023-03-08T17:24:05.523Z,93363.03
2023-03-08T17:27:09.049Z,93367.81
2023-03-08T17:30:14.201Z,93365.97
2023-03-08T17:33:17.723Z,93365.19
2023-03-08T17:36:22.084Z,93362.56
2023-03-08T17:39:24.670Z,93369.66
2023-03-08T17:42:27.252Z,93370.44
2023-03-08T17:45:30.323Z,93377.25
2023-03-08T17:48:33.581Z,93376.47
2023-03-08T17:51:37.480Z,93370.16
2023-03-08T17:54:40.006Z,93377.25
2023-03-08T17:57:44.904Z,93380.94
2023-03-08T18:00:47.712Z,93370.16
2023-03-08T18:03:50.639Z,93372.78
2023-03-08T18:06:54.544Z,93374.63
2023-03-08T18:09:57.712Z,93382.50
2023-03-08T18:13:00.247Z,93382.50
2023-03-08T18:16:04.692Z,93381.44
2023-03-08T18:19:08.107Z,93385.13
2023-03-08T18:22:11.977Z,93384.06
2023-03-08T18:25:14.609Z,93378.03
2023-03-08T18:28:18.316Z,93381.44
2023-03-08T18:31:23.193Z,93378.31
2023-03-08T18:34:25.901Z,93373.84
2023-03-08T18:37:31.325Z,93365.97
2023-03-08T18:40:34.072Z,93373.06
2023-03-08T18:43:36.518Z,93377.25
2023-03-08T18:46:39.064Z,93379.09
2023-03-08T18:49:41.694Z,93379.09
2023-03-08T18:52:45.726Z,93377.25
2023-03-08T18:55:55.443Z,93377.25
2023-03-08T18:59:00.137Z,93372.78
2023-03-08T19:02:02.542Z,93366.75
2023-03-08T19:05:05.836Z,93358.88
2023-03-08T19:08:09.608Z,93364.13
2023-03-08T19:11:13.506Z,93362.56
2023-03-08T19:14:17.447Z,93363.03
2023-03-08T19:17:20.201Z,93367.03
2023-03-08T19:20:24.858Z,93370.44
2023-03-08T19:23:28.732Z,93361.50
2023-03-08T19:26:37.856Z,93361.50
2023-03-08T19:29:40.416Z,93362.56
2023-03-08T19:32:43.181Z,93358.88
2023-03-08T19:35:45.810Z,93364.13
2023-03-08T19:38:49.788Z,93364.91
2023-03-08T19:41:54.127Z,93357.03
2023-03-08T19:44:56.566Z,93367.53
2023-03-08T19:48:00.627Z,93366.75
2023-03-08T19:51:03.848Z,93367.53
2023-03-08T19:54:08.213Z,93363.03
2023-03-08T19:57:12.648Z,93366.75
2023-03-08T20:00:15.709Z,93363.03
2023-03-08T20:03:18.279Z,93368.31
2023-03-08T20:06:24.966Z,93364.63
2023-03-08T20:09:29.613Z,93367.53
2023-03-08T20:12:32.122Z,93372.50
2023-03-08T20:15:34.665Z,93370.66
2023-03-08T20:18:37.508Z,93366.47
2023-03-08T20:21:40.041Z,93369.09
2023-03-08T20:24:43.917Z,93366.19
2023-03-08T20:27:46.488Z,93365.41
2023-03-08T20:30:49.281Z,93374.06
2023-03-08T20:33:51.955Z,93371.44
2023-03-08T20:36:54.518Z,93371.72
2023-03-08T20:39:59.115Z,93379.31
2023-03-08T20:43:01.591Z,93374.84
2023-03-08T20:46:07.078Z,93368.81
2023-03-08T20:49:12.339Z,93367.75
2023-03-08T20:52:14.940Z,93366.19
2023-03-08T20:55:19.198Z,93368.53
2023-03-08T20:58:23.801Z,93358.81
2023-03-08T21:01:28.736Z,93356.19
2023-03-08T21:04:31.960Z,93345.69
2023-03-08T21:07:34.940Z,93346.75
2023-03-08T21:10:40.771Z,93338.88
2023-03-08T21:13:44.700Z,93340.44
2023-03-08T21:16:47.610Z,93339.66
2023-03-08T21:19:50.184Z,93346.75
2023-03-08T21:22:53.025Z,93347.53
2023-03-08T21:25:59.813Z,93342.28
2023-03-08T21:29:04.735Z,93331.00
2023-03-08T21:32:09.192Z,93324.69
2023-03-08T21:35:12.353Z,93332.56
2023-03-08T21:38:16.380Z,93326.53
2023-03-08T21:41:22.384Z,93332.84
2023-03-08T21:44:25.612Z,93334.41
2023-03-08T21:47:29.273Z,93321.28
2023-03-08T21:50:33.014Z,93319.72
2023-03-08T21:53:35.629Z,93317.88
2023-03-08T21:56:39.813Z,93318.94
2023-03-08T21:59:42.205Z,93318.94
2023-03-08T22:02:46.012Z,93314.19
2023-03-08T22:05:48.715Z,93300.56
2023-03-08T22:08:51.713Z,93295.03
2023-03-08T22:11:56.903Z,93292.41
2023-03-08T22:14:59.355Z,93299.50
2023-03-08T22:18:01.860Z,93297.66
2023-03-08T22:21:05.431Z,93296.88
2023-03-08T22:24:08.244Z,93284.78
2023-03-08T22:27:13.703Z,93276.91
2023-03-08T22:30:16.415Z,93288.19
2023-03-08T22:33:18.939Z,93287.41
2023-03-08T22:36:22.597Z,93275.59
2023-03-08T22:39:25.018Z,93278.75
2023-03-08T22:42:29.359Z,93281.38
2023-03-08T22:45:34.199Z,93273.22
2023-03-08T22:48:37.045Z,93258.25
2023-03-08T22:51:41.415Z,93266.13
2023-03-08T22:54:43.807Z,93267.19
2023-03-08T22:57:47.962Z,93266.94
2023-03-08T23:00:50.854Z,93258.25
2023-03-08T23:03:56.761Z,93256.41
2023-03-08T23:06:59.523Z,93265.09
2023-03-08T23:10:02.002Z,93262.72
2023-03-08T23:13:05.876Z,93260.63
2023-03-08T23:16:09.840Z,93256.41
2023-03-08T23:19:14.447Z,93250.13
2023-03-08T23:22:17.371Z,93247.75
2023-03-08T23:25:19.863Z,93249.59
2023-03-08T23:28:24.191Z,93248.53
2023-03-08T23:31:28.832Z,93242.50
2023-03-08T23:34:31.627Z,93242.50
2023-03-08T23:37:34.147Z,93252.75
2023-03-08T23:40:39.687Z,93244.06
2023-03-08T23:43:44.642Z,93243.28
2023-03-08T23:46:47.441Z,93239.09
2023-03-08T23:49:51.668Z,93224.13
2023-03-08T23:52:54.180Z,93226.75
2023-03-08T23:55:56.669Z,93222.28
2023-03-08T23:59:04.885Z,93220.44
